createdAt,value
2022-08-14T00:03:35.038Z,25.25
2022-08-14T00:08:43.775Z,25.28
2022-08-14T00:13:46.513Z,25.32
2022-08-14T00:19:06.402Z,25.10
2022-08-14T00:24:10.783Z,24.90
2022-08-14T00:29:27.125Z,25.29
2022-08-14T00:34:36.754Z,25.22
2022-08-14T00:39:36.316Z,25.00
2022-08-14T00:44:35.361Z,25.13
2022-08-14T00:49:43.119Z,24.89
2022-08-14T00:54:43.467Z,24.39
2022-08-14T00:59:45.030Z,24.08
2022-08-14T01:04:53.452Z,24.03
2022-08-14T01:09:58.777Z,24.05
2022-08-14T01:14:58.907Z,24.08
2022-08-14T01:20:27.754Z,23.75
2022-08-14T01:25:28.212Z,23.91
2022-08-14T01:30:26.600Z,24.00
2022-08-14T01:36:05.627Z,23.89
2022-08-14T01:40:47.951Z,23.99
2022-08-14T01:46:06.027Z,23.63
2022-08-14T01:51:19.286Z,23.82
2022-08-14T01:56:36.898Z,23.70
2022-08-14T02:01:38.147Z,23.18
2022-08-14T02:06:43.150Z,23.26
2022-08-14T02:11:45.344Z,23.62
2022-08-14T02:16:54.258Z,23.57
2022-08-14T02:21:55.578Z,23.72
2022-08-14T02:28:23.366Z,23.83
2022-08-14T02:32:30.318Z,23.60
2022-08-14T02:37:45.671Z,23.48
2022-08-14T02:42:54.950Z,23.29
2022-08-14T02:47:57.407Z,23.09
2022-08-14T02:53:03.324Z,22.92
2022-08-14T02:58:06.028Z,22.93
2022-08-14T03:03:08.008Z,23.07
2022-08-14T03:08:16.015Z,23.28
2022-08-14T03:13:21.162Z,23.30
2022-08-14T03:18:31.847Z,23.05
2022-08-14T03:23:37.701Z,22.98
2022-08-14T03:28:40.597Z,23.30
2022-08-14T03:33:41.203Z,23.07
2022-08-14T03:39:12.415Z,22.82
2022-08-14T03:45:27.468Z,23.06
2022-08-14T03:49:29.285Z,22.89
2022-08-14T03:54:34.582Z,23.06
2022-08-14T03:59:33.080Z,23.31
2022-08-14T04:04:33.594Z,23.29
2022-08-14T04:09:33.898Z,23.57
2022-08-14T04:14:33.098Z,23.70
2022-08-14T04:19:36.720Z,23.69
2022-08-14T04:24:40.654Z,23.92
2022-08-14T04:29:40.778Z,23.86
2022-08-14T04:34:42.180Z,23.95
2022-08-14T04:40:03.119Z,23.98
2022-08-14T04:45:01.878Z,24.18
2022-08-14T04:50:03.555Z,24.30
2022-08-14T04:55:02.846Z,24.30
2022-08-14T05:00:03.314Z,24.08
2022-08-14T05:05:01.369Z,23.72
2022-08-14T05:09:59.641Z,23.67
2022-08-14T05:15:00.747Z,24.02
2022-08-14T05:21:54.943Z,23.99
2022-08-14T05:25:21.458Z,24.09
2022-08-14T05:30:22.810Z,24.27
2022-08-14T05:35:23.582Z,24.25
2022-08-14T05:40:24.088Z,24.66
2022-08-14T05:45:22.519Z,24.63
2022-08-14T05:50:22.694Z,24.51
2022-08-14T05:55:23.348Z,24.84
2022-08-14T06:00:29.836Z,24.76
2022-08-14T06:05:32.560Z,25.03
2022-08-14T06:10:38.044Z,25.10
2022-08-14T06:15:35.978Z,24.87
2022-08-14T06:20:35.618Z,25.08
2022-08-14T06:25:34.565Z,25.14
2022-08-14T06:30:46.367Z,25.25
2022-08-14T06:35:47.913Z,25.45
2022-08-14T06:40:46.293Z,25.38
2022-08-14T06:45:53.677Z,25.84
2022-08-14T06:50:58.306Z,25.98
2022-08-14T06:56:00.643Z,26.23
2022-08-14T07:01:26.829Z,26.15
2022-08-14T07:06:46.367Z,26.37
2022-08-14T07:11:45.682Z,26.54
2022-08-14T07:16:46.701Z,26.46
2022-08-14T07:21:46.571Z,26.69
2022-08-14T07:26:48.692Z,26.90
2022-08-14T07:31:46.423Z,26.89
2022-08-14T07:36:58.233Z,26.89
2022-08-14T07:42:02.606Z,27.05
2022-08-14T07:47:05.332Z,27.19
2022-08-14T07:52:04.263Z,27.21
2022-08-14T07:57:12.185Z,27.33
2022-08-14T08:02:18.779Z,27.59
2022-08-14T08:07:19.376Z,27.67
2022-08-14T08:12:20.753Z,27.76
2022-08-14T08:17:20.784Z,28.17
2022-08-14T08:22:23.875Z,28.31
2022-08-14T08:27:25.247Z,28.47
2022-08-14T08:32:29.894Z,28.35
2022-08-14T08:37:32.658Z,28.75
2022-08-14T08:42:44.944Z,28.93
2022-08-14T08:47:46.549Z,29.05
2022-08-14T08:52:51.302Z,29.00
2022-08-14T08:57:56.840Z,29.33
2022-08-14T09:03:05.553Z,29.53
2022-08-14T09:08:31.432Z,29.61
2022-08-14T09:13:33.212Z,29.88
2022-08-14T09:18:33.952Z,29.88
2022-08-14T09:23:34.762Z,29.07
2022-08-14T09:28:34.555Z,28.13
2022-08-14T09:34:04.359Z,27.53
2022-08-14T09:39:23.080Z,27.16
2022-08-14T09:44:54.528Z,27.22
2022-08-14T09:49:53.771Z,27.42
2022-08-14T09:54:51.455Z,27.94
2022-08-14T10:00:30.564Z,27.98
2022-08-14T10:05:34.044Z,27.84
2022-08-14T10:10:41.750Z,27.91
2022-08-14T10:15:46.794Z,27.63
2022-08-14T10:20:58.480Z,27.77
2022-08-14T10:26:23.064Z,27.90
2022-08-14T10:31:44.808Z,28.34
2022-08-14T10:37:02.651Z,27.84
2022-08-14T10:42:16.502Z,28.41
2022-08-14T10:47:40.015Z,28.83
2022-08-14T10:52:57.085Z,28.75
2022-08-14T10:57:59.875Z,28.85
2022-08-14T11:03:02.675Z,28.74
2022-08-14T11:08:09.209Z,28.76
2022-08-14T11:13:17.301Z,28.67
2022-08-14T11:18:20.507Z,28.34
2022-08-14T11:23:38.282Z,28.07
2022-08-14T11:28:49.831Z,28.13
2022-08-14T11:33:59.546Z,28.25
2022-08-14T11:39:03.037Z,28.05
2022-08-14T11:44:17.524Z,27.91
2022-08-14T11:49:35.505Z,27.63
2022-08-14T11:54:36.434Z,26.73
2022-08-14T11:59:35.479Z,26.14
2022-08-14T12:04:54.181Z,25.57
2022-08-14T12:09:57.120Z,25.26
2022-08-14T12:15:00.274Z,25.29
2022-08-14T12:20:03.136Z,25.08
2022-08-14T12:25:08.491Z,24.92
2022-08-14T12:30:14.403Z,24.60
2022-08-14T12:35:22.829Z,22.73
2022-08-14T12:40:25.177Z,21.92
2022-08-14T12:45:33.484Z,21.32
2022-08-14T12:50:42.273Z,21.04
2022-08-14T12:56:21.431Z,21.20
2022-08-14T13:01:56.792Z,21.55
2022-08-14T13:06:55.874Z,21.46
2022-08-14T13:11:58.976Z,21.26
2022-08-14T13:17:20.856Z,21.17
2022-08-14T13:22:32.110Z,21.15
2022-08-14T13:27:39.088Z,21.44
2022-08-14T13:32:48.257Z,21.27
2022-08-14T13:37:53.564Z,21.29
2022-08-14T13:42:57.273Z,21.21
2022-08-14T13:47:55.614Z,21.14
2022-08-14T13:53:02.561Z,21.14
2022-08-14T13:58:05.367Z,21.30
2022-08-14T14:03:08.642Z,21.15
2022-08-14T14:08:18.606Z,20.93
2022-08-14T14:13:26.659Z,20.99
2022-08-14T14:18:34.507Z,21.00
2022-08-14T14:23:40.710Z,21.08
2022-08-14T14:28:39.210Z,20.91
2022-08-14T14:33:51.239Z,21.08
2022-08-14T14:39:04.186Z,21.29
2022-08-14T14:44:03.180Z,21.13
2022-08-14T14:49:07.952Z,21.17
2022-08-14T14:54:09.402Z,21.34
2022-08-14T14:59:14.407Z,21.61
2022-08-14T15:04:20.965Z,21.57
2022-08-14T15:09:20.400Z,21.59
2022-08-14T15:14:56.167Z,21.27
2022-08-14T15:19:42.475Z,21.29
2022-08-14T15:24:59.254Z,21.52
2022-08-14T15:29:59.473Z,21.41
2022-08-14T15:34:58.300Z,21.48
2022-08-14T15:39:57.362Z,21.43
2022-08-14T15:45:01.270Z,21.29
2022-08-14T15:50:04.538Z,21.50
2022-08-14T15:55:04.588Z,21.71
2022-08-14T16:00:40.575Z,21.73
2022-08-14T16:05:50.724Z,21.85
2022-08-14T16:10:51.056Z,21.81
2022-08-14T16:15:59.745Z,21.88
2022-08-14T16:21:21.353Z,21.99
2022-08-14T16:26:29.107Z,21.85
2022-08-14T16:31:35.747Z,21.69
2022-08-14T16:36:38.349Z,21.86
2022-08-14T16:42:39.507Z,21.69
2022-08-14T16:47:25.463Z,21.66
2022-08-14T16:52:54.801Z,21.71
2022-08-14T16:57:58.834Z,21.62
2022-08-14T17:03:13.457Z,21.90
2022-08-14T17:08:32.400Z,21.50
2022-08-14T17:13:59.468Z,21.82
2022-08-14T17:19:04.798Z,21.77
2022-08-14T17:24:56.838Z,21.54
2022-08-14T17:29:54.446Z,21.76
2022-08-14T17:35:02.371Z,22.09
2022-08-14T17:40:19.847Z,22.32
2022-08-14T17:45:47.186Z,22.30
2022-08-14T17:51:01.103Z,22.18
2022-08-14T17:56:03.956Z,22.05
2022-08-14T18:01:08.881Z,22.01
2022-08-14T18:06:39.044Z,21.95
2022-08-14T18:11:46.368Z,21.80
2022-08-14T18:16:47.988Z,21.81
2022-08-14T18:21:57.004Z,21.84
2022-08-14T18:27:10.660Z,22.06
2022-08-14T18:32:31.954Z,22.34
2022-08-14T18:37:37.773Z,22.36
2022-08-14T18:42:35.747Z,22.68
2022-08-14T18:48:06.493Z,22.81
2022-08-14T18:53:09.037Z,22.79
2022-08-14T18:58:25.973Z,22.72
2022-08-14T19:03:50.256Z,22.78
2022-08-14T19:09:02.987Z,22.75
2022-08-14T19:14:05.617Z,22.53
2022-08-14T19:19:35.103Z,22.34
2022-08-14T19:24:50.135Z,22.13
2022-08-14T19:29:51.254Z,21.86
2022-08-14T19:34:53.057Z,22.45
2022-08-14T19:39:57.123Z,22.23
2022-08-14T19:44:56.413Z,22.15
2022-08-14T19:50:30.231Z,22.31
2022-08-14T19:55:34.671Z,22.17
2022-08-14T20:00:52.020Z,22.00
2022-08-14T20:06:05.391Z,22.35
2022-08-14T20:11:42.935Z,22.24
2022-08-14T20:17:03.258Z,22.43
2022-08-14T20:22:36.407Z,22.13
2022-08-14T20:27:59.576Z,22.23
2022-08-14T20:33:03.353Z,21.97
2022-08-14T20:38:29.680Z,22.17
2022-08-14T20:43:56.347Z,22.02
2022-08-14T20:49:00.818Z,21.93
2022-08-14T20:54:02.782Z,21.61
2022-08-14T20:59:18.234Z,21.59
2022-08-14T21:04:56.958Z,21.70
2022-08-14T21:11:04.954Z,21.98
2022-08-14T21:16:30.826Z,22.02
2022-08-14T21:21:40.584Z,22.09
2022-08-14T21:27:04.404Z,22.00
2022-08-14T21:32:50.539Z,21.96
2022-08-14T21:38:18.201Z,21.92
2022-08-14T21:43:22.752Z,22.24
2022-08-14T21:48:21.694Z,22.13
2022-08-14T21:53:25.765Z,22.17
2022-08-14T21:58:54.547Z,22.08
2022-08-14T22:03:55.186Z,21.96
2022-08-14T22:08:55.827Z,22.28
2022-08-14T22:14:02.110Z,22.23
2022-08-14T22:19:21.506Z,22.23
2022-08-14T22:24:38.372Z,22.07
2022-08-14T22:29:54.876Z,22.03
2022-08-14T22:34:58.054Z,22.51
2022-08-14T22:40:43.510Z,22.31
2022-08-14T22:45:16.901Z,22.24
2022-08-14T22:50:30.506Z,22.10
2022-08-14T22:55:31.299Z,22.37
2022-08-14T23:00:35.724Z,22.19
2022-08-14T23:05:40.293Z,22.21
2022-08-14T23:10:55.215Z,21.99
2022-08-14T23:15:56.100Z,22.00
2022-08-14T23:20:55.704Z,21.98
2022-08-14T23:25:59.428Z,21.98
2022-08-14T23:31:05.560Z,21.77
2022-08-14T23:36:28.238Z,21.63
2022-08-14T23:41:24.648Z,21.48
2022-08-14T23:46:34.639Z,21.47
2022-08-14T23:51:38.685Z,21.28
2022-08-14T23:56:37.459Z,21.32
